createdAt,value
2019-04-29T00:00:01.822Z,2.12
2019-04-29T00:02:34.747Z,2.60
2019-04-29T00:05:04.617Z,1.47
2019-04-29T00:07:34.460Z,1.50
2019-04-29T00:10:06.036Z,1.55
2019-04-29T00:12:35.639Z,1.32
2019-04-29T00:15:10.982Z,1.52
2019-04-29T00:17:51.363Z,1.60
2019-04-29T00:20:25.229Z,2.55
2019-04-29T00:22:54.809Z,1.30
2019-04-29T00:25:24.371Z,1.82
2019-04-29T00:27:53.945Z,1.30
2019-04-29T00:30:23.496Z,1.07
2019-04-29T00:32:53.048Z,1.62
2019-04-29T00:35:23.468Z,1.30
2019-04-29T00:38:06.626Z,1.50
2019-04-29T00:40:38.175Z,1.80
2019-04-29T00:43:12.114Z,1.65
2019-04-29T00:45:41.695Z,1.35
2019-04-29T00:48:11.228Z,1.35
2019-04-29T00:50:41.240Z,1.55
2019-04-29T00:53:10.860Z,1.75
2019-04-29T00:55:40.416Z,1.45
2019-04-29T00:58:09.965Z,0.90
2019-04-29T01:00:41.139Z,1.32
2019-04-29T01:03:10.792Z,0.80
2019-04-29T01:05:40.299Z,1.12
2019-04-29T01:08:09.852Z,1.37
2019-04-29T01:10:39.416Z,1.10
2019-04-29T01:13:08.964Z,1.10
2019-04-29T01:15:38.546Z,1.30
2019-04-29T01:18:08.104Z,0.80
2019-04-29T01:20:37.673Z,1.15
2019-04-29T01:23:07.239Z,1.60
2019-04-29T01:25:36.795Z,1.07
2019-04-29T01:28:07.912Z,1.10
2019-04-29T01:30:43.288Z,0.82
2019-04-29T01:33:12.885Z,1.05
2019-04-29T01:35:42.424Z,1.20
2019-04-29T01:38:11.980Z,1.40
2019-04-29T01:40:45.904Z,1.00
2019-04-29T01:43:15.799Z,1.05
2019-04-29T01:45:46.340Z,1.25
2019-04-29T01:48:15.898Z,1.02
2019-04-29T01:50:45.443Z,1.00
2019-04-29T01:53:15.047Z,0.80
2019-04-29T01:55:44.655Z,0.80
2019-04-29T01:58:14.519Z,0.78
2019-04-29T02:00:44.099Z,0.90
2019-04-29T02:03:13.648Z,0.80
2019-04-29T02:05:43.235Z,0.70
2019-04-29T02:08:12.795Z,0.80
2019-04-29T02:10:42.389Z,1.72
2019-04-29T02:13:11.955Z,1.75
2019-04-29T02:15:41.512Z,0.70
2019-04-29T02:18:11.124Z,0.82
2019-04-29T02:20:40.678Z,0.82
2019-04-29T02:23:14.284Z,0.70
2019-04-29T02:25:45.388Z,0.82
2019-04-29T02:28:14.991Z,1.00
2019-04-29T02:30:49.108Z,0.80
2019-04-29T02:33:18.816Z,1.00
2019-04-29T02:35:48.404Z,0.70
2019-04-29T02:38:25.055Z,0.70
2019-04-29T02:40:59.255Z,0.93
2019-04-29T02:43:33.028Z,0.82
2019-04-29T02:46:02.587Z,1.42
2019-04-29T02:48:34.726Z,0.88
2019-04-29T02:51:03.352Z,0.70
2019-04-29T02:53:32.882Z,1.47
2019-04-29T02:56:02.763Z,1.17
2019-04-29T02:58:33.888Z,1.00
2019-04-29T03:01:11.060Z,0.90
2019-04-29T03:03:42.167Z,0.75
2019-04-29T03:06:11.750Z,0.60
2019-04-29T03:08:41.307Z,1.00
2019-04-29T03:11:10.954Z,0.72
2019-04-29T03:13:40.491Z,1.10
2019-04-29T03:16:10.082Z,0.90
2019-04-29T03:18:53.470Z,0.98
2019-04-29T03:21:27.719Z,0.80
2019-04-29T03:23:57.291Z,0.80
2019-04-29T03:26:26.881Z,0.90
2019-04-29T03:28:57.047Z,1.02
2019-04-29T03:31:26.596Z,0.90
2019-04-29T03:33:56.177Z,0.70
2019-04-29T03:36:25.738Z,0.93
2019-04-29T03:38:55.296Z,0.88
2019-04-29T03:41:24.989Z,0.95
2019-04-29T03:43:54.554Z,0.82
2019-04-29T03:46:24.429Z,1.00
2019-04-29T03:48:53.987Z,1.00
2019-04-29T03:51:23.533Z,1.00
2019-04-29T03:53:53.143Z,0.80
2019-04-29T03:56:22.693Z,0.82
2019-04-29T03:58:52.243Z,0.80
2019-04-29T04:01:29.078Z,1.00
2019-04-29T04:04:00.220Z,1.00
2019-04-29T04:06:31.363Z,1.00
2019-04-29T04:09:05.942Z,1.02
2019-04-29T04:11:35.376Z,0.80
2019-04-29T04:14:04.940Z,0.70
2019-04-29T04:16:52.365Z,0.72
2019-04-29T04:19:22.728Z,0.80
2019-04-29T04:21:52.295Z,1.35
2019-04-29T04:24:21.838Z,0.85
2019-04-29T04:26:51.435Z,0.93
2019-04-29T04:29:21.001Z,0.90
2019-04-29T04:31:50.541Z,0.98
2019-04-29T04:34:20.113Z,1.15
2019-04-29T04:36:49.675Z,0.80
2019-04-29T04:39:19.224Z,1.12
2019-04-29T04:41:48.865Z,0.90
2019-04-29T04:44:18.499Z,0.90
2019-04-29T04:46:47.980Z,0.90
2019-04-29T04:49:18.500Z,0.80
2019-04-29T04:51:48.068Z,1.00
2019-04-29T04:54:17.712Z,1.10
2019-04-29T04:56:47.297Z,1.12
2019-04-29T04:59:16.958Z,0.85
2019-04-29T05:01:46.528Z,1.00
2019-04-29T05:04:16.094Z,0.98
2019-04-29T05:06:45.701Z,0.85
2019-04-29T05:09:15.256Z,0.85
2019-04-29T05:11:44.876Z,0.80
2019-04-29T05:14:14.452Z,1.10
2019-04-29T05:16:44.026Z,1.10
2019-04-29T05:19:13.604Z,1.57
2019-04-29T05:21:43.161Z,1.10
2019-04-29T05:24:12.721Z,2.33
2019-04-29T05:26:42.290Z,1.12
2019-04-29T05:29:11.868Z,0.82
2019-04-29T05:31:41.522Z,1.10
2019-04-29T05:34:11.506Z,0.80
2019-04-29T05:36:43.474Z,0.80
2019-04-29T05:39:17.311Z,1.12
2019-04-29T05:41:46.954Z,0.80
2019-04-29T05:44:19.092Z,1.07
2019-04-29T05:46:55.980Z,1.65
2019-04-29T05:49:27.108Z,0.88
2019-04-29T05:52:01.965Z,1.22
2019-04-29T05:54:34.371Z,1.05
2019-04-29T05:57:03.923Z,0.78
2019-04-29T05:59:33.487Z,1.10
2019-04-29T06:02:03.101Z,0.80
2019-04-29T06:04:32.653Z,2.87
2019-04-29T06:07:02.202Z,0.85
2019-04-29T06:09:32.076Z,2.02
2019-04-29T06:12:01.635Z,2.25
2019-04-29T06:14:31.281Z,1.15
2019-04-29T06:17:03.060Z,1.17
2019-04-29T06:19:35.194Z,0.93
2019-04-29T06:22:03.971Z,2.35
2019-04-29T06:24:36.903Z,0.75
2019-04-29T06:27:04.806Z,2.30
2019-04-29T06:29:34.427Z,1.10
2019-04-29T06:32:03.993Z,4.92
2019-04-29T06:34:35.518Z,0.82
2019-04-29T06:37:04.747Z,1.30
2019-04-29T06:39:34.585Z,1.07
2019-04-29T06:42:04.155Z,1.57
2019-04-29T06:44:34.441Z,1.37
2019-04-29T06:47:04.011Z,8.30
2019-04-29T06:49:34.564Z,1.00
2019-04-29T06:52:04.187Z,2.75
2019-04-29T06:54:33.747Z,1.00
2019-04-29T06:57:03.384Z,1.90
2019-04-29T06:59:32.987Z,0.95
2019-04-29T07:02:02.551Z,2.05
2019-04-29T07:04:38.525Z,1.90
2019-04-29T07:07:03.339Z,1.90
2019-04-29T07:09:32.911Z,1.40
2019-04-29T07:12:02.452Z,0.80
2019-04-29T07:14:33.365Z,0.60
2019-04-29T07:17:05.715Z,2.35
2019-04-29T07:19:35.496Z,1.20
2019-04-29T07:22:05.071Z,1.00
2019-04-29T07:24:34.961Z,0.72
2019-04-29T07:27:04.560Z,2.35
2019-04-29T07:29:37.904Z,2.12
2019-04-29T07:32:09.364Z,1.30
2019-04-29T07:34:39.589Z,1.55
2019-04-29T07:37:08.808Z,2.80
2019-04-29T07:39:38.369Z,1.85
2019-04-29T07:42:07.941Z,1.27
2019-04-29T07:44:44.300Z,1.67
2019-04-29T07:47:10.859Z,0.95
2019-04-29T07:49:40.405Z,1.15
2019-04-29T07:52:14.378Z,0.90
2019-04-29T07:54:41.509Z,1.95
2019-04-29T07:57:12.430Z,2.15
2019-04-29T07:59:42.243Z,1.00
2019-04-29T08:02:12.149Z,1.70
2019-04-29T08:04:41.751Z,0.78
2019-04-29T08:07:11.327Z,0.90
2019-04-29T08:09:44.215Z,1.22
2019-04-29T08:12:12.076Z,1.02
2019-04-29T08:14:41.637Z,1.42
2019-04-29T08:17:11.208Z,1.17
2019-04-29T08:19:40.758Z,2.45
2019-04-29T08:22:10.314Z,2.37
2019-04-29T08:24:39.856Z,1.20
2019-04-29T08:27:09.444Z,3.90
2019-04-29T08:29:38.999Z,3.08
2019-04-29T08:32:08.558Z,2.27
2019-04-29T08:34:40.758Z,3.70
2019-04-29T08:37:09.310Z,2.30
2019-04-29T08:39:38.857Z,2.65
2019-04-29T08:42:11.556Z,1.82
2019-04-29T08:45:01.543Z,2.17
2019-04-29T08:47:36.008Z,1.40
2019-04-29T08:50:05.971Z,4.28
2019-04-29T08:52:35.534Z,2.22
2019-04-29T08:55:05.396Z,1.40
2019-04-29T08:57:36.635Z,1.60
2019-04-29T09:00:09.345Z,1.52
2019-04-29T09:02:41.538Z,2.52
2019-04-29T09:05:11.305Z,1.67
2019-04-29T09:07:41.492Z,1.12
2019-04-29T09:10:11.131Z,1.25
2019-04-29T09:12:41.818Z,1.22
2019-04-29T09:15:11.572Z,1.85
2019-04-29T09:17:41.129Z,1.45
2019-04-29T09:20:10.692Z,1.20
2019-04-29T09:22:50.351Z,1.65
2019-04-29T09:25:28.029Z,1.80
2019-04-29T09:27:59.527Z,1.30
2019-04-29T09:30:29.088Z,1.20
2019-04-29T09:32:58.655Z,1.37
2019-04-29T09:35:28.866Z,1.07
2019-04-29T09:37:59.628Z,1.30
2019-04-29T09:40:30.839Z,1.30
2019-04-29T09:43:21.482Z,1.32
2019-04-29T09:45:53.853Z,1.32
2019-04-29T09:48:24.119Z,2.10
2019-04-29T09:50:53.676Z,1.55
2019-04-29T09:53:23.252Z,1.27
2019-04-29T09:55:52.825Z,1.35
2019-04-29T09:58:22.385Z,1.57
2019-04-29T10:01:13.836Z,1.32
2019-04-29T10:03:45.165Z,1.50
2019-04-29T10:06:19.242Z,1.30
2019-04-29T10:08:48.830Z,1.60
2019-04-29T10:11:18.389Z,1.60
2019-04-29T10:13:48.967Z,1.90
2019-04-29T10:16:20.137Z,1.72
2019-04-29T10:19:00.721Z,2.77
2019-04-29T10:21:32.515Z,1.72
2019-04-29T10:24:02.081Z,2.37
2019-04-29T10:26:31.643Z,2.52
2019-04-29T10:29:02.808Z,3.42
2019-04-29T10:31:33.471Z,2.40
2019-04-29T10:34:03.055Z,1.75
2019-04-29T10:36:32.607Z,2.25
2019-04-29T10:39:03.730Z,3.08
2019-04-29T10:41:39.804Z,2.67
2019-04-29T10:44:20.463Z,3.92
2019-04-29T10:46:58.740Z,2.52
2019-04-29T10:49:41.877Z,3.17
2019-04-29T10:52:11.647Z,4.00
2019-04-29T10:54:41.457Z,2.30
2019-04-29T10:57:14.721Z,3.30
2019-04-29T10:59:45.009Z,4.03
2019-04-29T11:02:16.532Z,2.17
2019-04-29T11:04:47.648Z,2.58
2019-04-29T11:07:26.590Z,4.53
2019-04-29T11:09:54.275Z,2.55
2019-04-29T11:12:23.832Z,3.35
2019-04-29T11:14:53.413Z,4.28
2019-04-29T11:17:25.380Z,3.45
2019-04-29T11:19:54.940Z,2.65
2019-04-29T11:22:29.355Z,4.90
2019-04-29T11:25:09.534Z,3.30
2019-04-29T11:27:56.989Z,4.67
2019-04-29T11:30:28.100Z,3.08
2019-04-29T11:33:15.011Z,3.37
2019-04-29T11:35:49.004Z,6.65
2019-04-29T11:38:19.305Z,4.62
2019-04-29T11:40:48.863Z,4.40
2019-04-29T11:43:19.226Z,3.60
2019-04-29T11:45:48.898Z,3.55
2019-04-29T11:48:18.623Z,4.28
2019-04-29T11:50:54.965Z,4.12
2019-04-29T11:53:24.055Z,4.03
2019-04-29T11:55:56.968Z,4.17
2019-04-29T11:58:42.777Z,5.03
2019-04-29T12:01:22.843Z,6.37
2019-04-29T12:03:56.527Z,4.58
2019-04-29T12:06:25.448Z,5.15
2019-04-29T12:08:55.241Z,4.30
2019-04-29T12:11:28.679Z,4.90
2019-04-29T12:14:03.096Z,5.00
2019-04-29T12:16:34.104Z,4.60
2019-04-29T12:19:17.072Z,4.83
2019-04-29T12:21:46.731Z,4.40
2019-04-29T12:24:16.268Z,6.25
2019-04-29T12:26:45.881Z,4.50
2019-04-29T12:29:18.165Z,4.58
2019-04-29T12:31:57.431Z,4.65
2019-04-29T12:34:45.233Z,4.47
2019-04-29T12:37:16.373Z,4.30
2019-04-29T12:40:03.475Z,4.03
2019-04-29T12:42:47.141Z,5.37
2019-04-29T12:45:24.070Z,4.90
2019-04-29T12:47:53.679Z,5.03
2019-04-29T12:50:23.473Z,4.30
2019-04-29T12:52:53.056Z,4.87
2019-04-29T12:55:44.769Z,4.80
2019-04-29T12:58:01.066Z,4.60
2019-04-29T13:00:46.292Z,4.62
2019-04-29T13:03:05.519Z,5.47
2019-04-29T13:05:58.347Z,6.60
2019-04-29T13:08:25.935Z,5.67
2019-04-29T13:10:57.438Z,5.40
2019-04-29T13:13:27.035Z,5.87
2019-04-29T13:16:14.527Z,6.33
2019-04-29T13:18:53.965Z,6.85
2019-04-29T13:21:23.005Z,7.45
2019-04-29T13:24:04.994Z,7.72
2019-04-29T13:26:28.280Z,7.78
2019-04-29T13:29:01.468Z,7.28
2019-04-29T13:31:38.015Z,6.62
2019-04-29T13:34:09.050Z,7.22
2019-04-29T13:36:31.732Z,6.42
2019-04-29T13:39:01.807Z,6.50
2019-04-29T13:41:33.028Z,8.48
2019-04-29T13:44:05.812Z,6.37
2019-04-29T13:46:36.852Z,5.95
2019-04-29T13:49:13.523Z,5.85
2019-04-29T13:51:41.912Z,5.90
2019-04-29T13:54:11.528Z,6.50
2019-04-29T13:56:56.237Z,5.83
2019-04-29T13:59:16.672Z,5.87
2019-04-29T14:02:01.248Z,7.00
2019-04-29T14:04:26.334Z,5.95
2019-04-29T14:06:57.402Z,5.72
2019-04-29T14:09:27.057Z,5.60
2019-04-29T14:12:02.037Z,5.92
2019-04-29T14:14:28.372Z,6.00
2019-04-29T14:17:17.069Z,5.97
2019-04-29T14:19:44.519Z,5.60
2019-04-29T14:22:00.472Z,6.08
2019-04-29T14:24:31.039Z,6.10
2019-04-29T14:27:00.638Z,5.30
2019-04-29T14:29:31.199Z,5.20
2019-04-29T14:32:01.301Z,6.37
2019-04-29T14:34:34.842Z,5.03
2019-04-29T14:37:19.618Z,5.05
2019-04-29T14:39:37.645Z,6.60
2019-04-29T14:42:11.940Z,8.23
2019-04-29T14:44:59.676Z,6.30
2019-04-29T14:47:30.808Z,7.47
2019-04-29T14:50:04.930Z,6.35
2019-04-29T14:52:34.536Z,7.70
2019-04-29T14:55:05.317Z,8.10
2019-04-29T14:57:35.215Z,6.47
2019-04-29T15:00:07.664Z,5.70
2019-04-29T15:02:37.568Z,5.62
2019-04-29T15:05:11.998Z,6.53
2019-04-29T15:07:38.517Z,7.50
2019-04-29T15:10:08.642Z,6.53
2019-04-29T15:12:51.260Z,7.08
2019-04-29T15:15:22.309Z,5.10
2019-04-29T15:17:53.681Z,8.18
2019-04-29T15:20:34.239Z,5.00
2019-04-29T15:23:03.943Z,4.70
2019-04-29T15:25:33.519Z,6.03
2019-04-29T15:28:03.080Z,5.22
2019-04-29T15:30:36.741Z,6.83
2019-04-29T15:33:03.831Z,5.20
2019-04-29T15:35:34.392Z,6.30
2019-04-29T15:38:03.950Z,6.08
2019-04-29T15:40:33.526Z,6.20
2019-04-29T15:43:03.148Z,5.80
2019-04-29T15:45:34.167Z,7.17
2019-04-29T15:48:03.844Z,6.30
2019-04-29T15:50:37.122Z,7.87
2019-04-29T15:53:04.621Z,7.17
2019-04-29T15:55:39.517Z,6.60
2019-04-29T15:58:06.719Z,6.92
2019-04-29T16:00:39.782Z,7.83
2019-04-29T16:03:07.902Z,5.78
2019-04-29T16:05:56.044Z,5.85
2019-04-29T16:08:17.464Z,6.10
2019-04-29T16:11:05.057Z,5.97
2019-04-29T16:13:34.629Z,5.60
2019-04-29T16:16:04.211Z,6.05
2019-04-29T16:18:33.762Z,5.80
2019-04-29T16:21:03.721Z,6.05
2019-04-29T16:23:38.577Z,5.30
2019-04-29T16:26:04.550Z,5.40
2019-04-29T16:28:39.801Z,8.23
2019-04-29T16:31:12.042Z,6.78
2019-04-29T16:33:36.463Z,8.25
2019-04-29T16:36:06.443Z,9.45
2019-04-29T16:38:36.195Z,10.05
2019-04-29T16:41:23.595Z,9.30
2019-04-29T16:43:54.729Z,9.65
2019-04-29T16:46:35.724Z,8.28
2019-04-29T16:49:01.093Z,8.15
2019-04-29T16:51:30.649Z,7.60
2019-04-29T16:54:02.652Z,7.40
2019-04-29T16:56:32.212Z,7.78
2019-04-29T16:59:08.851Z,7.72
2019-04-29T17:01:33.116Z,7.10
2019-04-29T17:04:05.288Z,6.78
2019-04-29T17:06:35.959Z,6.85
2019-04-29T17:09:13.788Z,6.28
2019-04-29T17:11:50.438Z,7.75
2019-04-29T17:14:17.327Z,7.87
2019-04-29T17:16:47.075Z,6.60
2019-04-29T17:19:16.618Z,6.80
2019-04-29T17:21:46.280Z,6.65
2019-04-29T17:24:15.835Z,6.30
2019-04-29T17:27:02.124Z,6.55
2019-04-29T17:29:48.648Z,6.35
2019-04-29T17:32:42.284Z,6.42
2019-04-29T17:35:00.427Z,6.45
2019-04-29T17:37:32.168Z,6.15
2019-04-29T17:40:01.796Z,7.28
2019-04-29T17:42:33.464Z,9.43
2019-04-29T17:45:10.568Z,6.42
2019-04-29T17:47:47.417Z,6.47
2019-04-29T17:50:30.637Z,7.40
2019-04-29T17:52:59.008Z,8.95
2019-04-29T17:55:38.026Z,6.87
2019-04-29T17:58:21.903Z,8.53
2019-04-29T18:01:05.389Z,7.70
2019-04-29T18:03:41.399Z,7.37
2019-04-29T18:06:29.107Z,8.45
2019-04-29T18:09:16.243Z,9.83
2019-04-29T18:11:51.549Z,9.25
2019-04-29T18:14:17.425Z,9.30
2019-04-29T18:16:47.960Z,8.50
2019-04-29T18:19:37.586Z,8.95
2019-04-29T18:22:25.482Z,9.48
2019-04-29T18:24:59.517Z,6.90
2019-04-29T18:27:30.612Z,8.23
2019-04-29T18:30:00.164Z,6.50
2019-04-29T18:32:35.495Z,8.23
2019-04-29T18:35:01.174Z,7.28
2019-04-29T18:37:36.965Z,7.67
2019-04-29T18:40:03.395Z,6.80
2019-04-29T18:42:38.283Z,7.80
2019-04-29T18:45:06.271Z,8.40
2019-04-29T18:47:38.625Z,9.20
2019-04-29T18:50:07.010Z,10.08
2019-04-29T18:52:36.591Z,9.58
2019-04-29T18:55:06.465Z,10.82
2019-04-29T18:57:36.817Z,9.55
2019-04-29T19:00:12.509Z,10.15
2019-04-29T19:02:46.096Z,10.35
2019-04-29T19:05:17.270Z,8.03
2019-04-29T19:07:54.649Z,9.90
2019-04-29T19:10:18.789Z,14.18
2019-04-29T19:12:58.198Z,15.75
2019-04-29T19:15:19.831Z,11.93
2019-04-29T19:17:59.119Z,13.28
2019-04-29T19:20:20.578Z,10.80
2019-04-29T19:22:55.845Z,10.43
2019-04-29T19:25:21.362Z,9.25
2019-04-29T19:27:50.922Z,11.15
2019-04-29T19:30:22.460Z,11.38
2019-04-29T19:32:53.960Z,11.22
2019-04-29T19:35:22.909Z,9.38
2019-04-29T19:37:53.352Z,10.60
2019-04-29T19:40:22.909Z,11.73
2019-04-29T19:42:52.502Z,10.78
2019-04-29T19:45:22.091Z,11.90
2019-04-29T19:47:53.372Z,11.80
2019-04-29T19:50:23.015Z,12.07
2019-04-29T19:52:52.570Z,10.35
2019-04-29T19:55:22.131Z,11.18
2019-04-29T19:57:52.536Z,9.90
2019-04-29T20:00:27.876Z,12.05
2019-04-29T20:02:54.803Z,15.30
2019-04-29T20:05:35.489Z,12.10
2019-04-29T20:08:02.703Z,12.00
2019-04-29T20:10:44.420Z,11.83
2019-04-29T20:13:04.110Z,13.30
2019-04-29T20:15:37.759Z,12.30
2019-04-29T20:18:33.882Z,11.43
2019-04-29T20:21:08.476Z,10.30
2019-04-29T20:23:35.848Z,10.08
2019-04-29T20:26:13.829Z,11.03
2019-04-29T20:28:33.499Z,10.15
2019-04-29T20:31:16.375Z,9.80
2019-04-29T20:33:34.435Z,10.58
2019-04-29T20:36:06.004Z,10.00
2019-04-29T20:38:38.859Z,9.23
2019-04-29T20:41:08.302Z,9.53
2019-04-29T20:43:37.886Z,9.63
2019-04-29T20:46:07.628Z,9.15
2019-04-29T20:48:37.451Z,8.88
2019-04-29T20:51:13.282Z,10.70
2019-04-29T20:53:43.089Z,10.45
2019-04-29T20:56:17.845Z,9.70
2019-04-29T20:58:46.225Z,9.35
2019-04-29T21:01:16.786Z,8.30
2019-04-29T21:03:52.137Z,8.90
2019-04-29T21:06:17.667Z,8.25
2019-04-29T21:08:51.224Z,7.42
2019-04-29T21:11:38.030Z,8.45
2019-04-29T21:14:34.077Z,8.53
2019-04-29T21:17:02.276Z,8.40
2019-04-29T21:19:29.781Z,9.50
2019-04-29T21:21:59.725Z,7.87
2019-04-29T21:24:29.283Z,7.97
2019-04-29T21:26:58.881Z,10.75
2019-04-29T21:29:28.425Z,9.70
2019-04-29T21:32:01.404Z,8.55
2019-04-29T21:34:37.068Z,8.75
2019-04-29T21:37:18.773Z,8.05
2019-04-29T21:39:49.923Z,7.97
2019-04-29T21:42:36.994Z,8.55
2019-04-29T21:45:08.840Z,8.35
2019-04-29T21:47:44.459Z,8.88
2019-04-29T21:50:10.187Z,7.97
2019-04-29T21:52:39.736Z,8.43
2019-04-29T21:55:09.317Z,8.35
2019-04-29T21:57:38.858Z,8.80
2019-04-29T22:00:10.135Z,7.90
2019-04-29T22:02:41.527Z,7.70
2019-04-29T22:05:16.930Z,8.78
2019-04-29T22:07:47.258Z,8.15
2019-04-29T22:10:15.389Z,7.30
2019-04-29T22:12:44.981Z,8.28
2019-04-29T22:15:16.082Z,8.33
2019-04-29T22:17:55.879Z,8.00
2019-04-29T22:20:19.312Z,7.35
2019-04-29T22:22:50.375Z,7.70
2019-04-29T22:25:19.983Z,7.53
2019-04-29T22:27:49.537Z,6.85
2019-04-29T22:30:19.299Z,7.35
2019-04-29T22:32:51.854Z,8.53
2019-04-29T22:35:20.128Z,7.25
2019-04-29T22:37:49.709Z,7.92
2019-04-29T22:40:19.245Z,7.65
2019-04-29T22:42:53.167Z,6.97
2019-04-29T22:45:23.104Z,7.35
2019-04-29T22:47:54.364Z,7.58
2019-04-29T22:50:23.877Z,6.53
2019-04-29T22:52:55.433Z,7.12
2019-04-29T22:55:25.339Z,6.92
2019-04-29T22:57:55.465Z,6.58
2019-04-29T23:00:32.703Z,6.33
2019-04-29T23:03:02.223Z,7.40
2019-04-29T23:05:29.917Z,9.65
2019-04-29T23:08:00.310Z,7.25
2019-04-29T23:10:29.911Z,8.08
2019-04-29T23:12:59.495Z,7.78
2019-04-29T23:15:29.044Z,5.62
2019-04-29T23:17:58.646Z,6.92
2019-04-29T23:20:45.554Z,8.20
2019-04-29T23:23:22.228Z,6.37
2019-04-29T23:25:55.626Z,5.33
2019-04-29T23:28:28.415Z,5.27
2019-04-29T23:30:59.011Z,5.80
2019-04-29T23:33:28.595Z,5.45
2019-04-29T23:35:58.468Z,5.33
2019-04-29T23:38:28.031Z,6.85
2019-04-29T23:40:57.584Z,5.28
2019-04-29T23:43:28.387Z,4.65
2019-04-29T23:46:00.441Z,4.62
2019-04-29T23:48:38.763Z,4.78
2019-04-29T23:51:02.335Z,4.22
2019-04-29T23:53:32.164Z,5.45
2019-04-29T23:56:05.602Z,4.65
2019-04-29T23:58:47.096Z,5.28
